Time;durP1;ratioP1;P1;durP2;ratioP2;P2;SDS_P1;SDS_P2;PMS_P1;PMS_P2;Temp;Humidity;BMP_temperature;BMP_pressure;BME280_temperature;BME280_humidity;BME280_pressure;Samples;Min_cycle;Max_cycle;Signal;HPM_P1;HPM_P2
2021/04/29 00:01:41;;;;;;;5.40;3.15;;;25.40;57.50;;;;;;5134879;27;20035;-41
2021/04/29 00:04:08;;;;;;;5.13;3.17;;;25.40;57.30;;;;;;5109942;27;20036;-40
2021/04/29 00:06:35;;;;;;;3.92;3.17;;;25.40;57.50;;;;;;5134350;27;20068;-39
2021/04/29 00:09:01;;;;;;;6.13;2.87;;;25.40;57.40;;;;;;5107469;27;20777;-39
2021/04/29 00:11:27;;;;;;;4.80;2.95;;;25.40;57.40;;;;;;5133739;27;20028;-43
2021/04/29 00:13:53;;;;;;;3.78;2.90;;;25.40;57.30;;;;;;5129435;27;20024;-38
2021/04/29 00:16:19;;;;;;;3.53;2.90;;;25.40;57.40;;;;;;5129683;27;20068;-44
2021/04/29 00:18:46;;;;;;;3.88;3.10;;;25.40;57.50;;;;;;5130311;27;20016;-39
2021/04/29 00:21:13;;;;;;;3.85;2.72;;;25.40;57.50;;;;;;5138772;27;20030;-39
2021/04/29 00:23:39;;;;;;;4.15;2.70;;;25.30;57.40;;;;;;5137916;27;20023;-38
2021/04/29 00:26:05;;;;;;;3.80;2.92;;;25.30;57.30;;;;;;5108518;27;20027;-39
2021/04/29 00:28:32;;;;;;;4.45;2.78;;;25.30;57.20;;;;;;5133963;27;20076;-38
2021/04/29 00:30:58;;;;;;;3.90;2.93;;;25.30;57.30;;;;;;5137820;27;20054;-39
2021/04/29 00:33:24;;;;;;;4.13;2.85;;;25.30;57.20;;;;;;5130811;27;20414;-41
2021/04/29 00:35:50;;;;;;;4.15;3.28;;;25.30;57.70;;;;;;5131445;27;20028;-38
2021/04/29 00:38:16;;;;;;;3.00;2.70;;;25.30;57.70;;;;;;5125175;28;20091;-38
2021/04/29 00:40:43;;;;;;;3.77;3.03;;;25.30;57.60;;;;;;5129600;28;20031;-39
2021/04/29 00:43:11;;;;;;;5.68;2.90;;;25.20;57.80;;;;;;5136814;28;20038;-39
2021/04/29 00:45:37;;;;;;;3.72;3.13;;;25.20;57.90;;;;;;5130669;28;20099;-39
2021/04/29 00:48:03;;;;;;;3.37;2.80;;;25.20;58.00;;;;;;5130877;28;20047;-39
2021/04/29 00:50:30;;;;;;;4.80;3.08;;;25.20;58.00;;;;;;5135197;28;20044;-39
2021/04/29 00:52:56;;;;;;;3.33;2.65;;;25.20;58.10;;;;;;5130895;28;20095;-39
2021/04/29 00:55:23;;;;;;;4.40;2.92;;;25.20;58.20;;;;;;5130124;28;20039;-39
2021/04/29 00:57:49;;;;;;;4.60;3.23;;;25.10;58.10;;;;;;5131384;28;20024;-38
2021/04/29 01:00:15;;;;;;;3.58;3.13;;;25.10;58.10;;;;;;5135600;28;20058;-39
2021/04/29 01:02:45;;;;;;;3.75;3.10;;;25.10;58.20;;;;;;5128402;28;20024;-38
2021/04/29 01:05:24;;;;;;;4.40;3.17;;;25.10;58.10;;;;;;5113744;28;20035;-39
2021/04/29 01:08:03;;;;;;;2.95;2.63;;;25.10;58.00;;;;;;5134623;27;20054;-39
2021/04/29 01:10:59;;;;;;;2.97;2.63;;;25.10;58.00;;;;;;5113827;27;20032;-40
2021/04/29 01:13:27;;;;;;;3.88;3.03;;;25.10;58.00;;;;;;5117843;27;20479;-39
2021/04/29 01:15:53;;;;;;;4.18;2.65;;;25.10;58.10;;;;;;5101788;27;20042;-38
2021/04/29 01:18:22;;;;;;;4.28;2.78;;;25.10;58.00;;;;;;5100390;27;20110;-39
2021/04/29 01:20:57;;;;;;;4.38;3.08;;;25.10;58.10;;;;;;5117421;27;20072;-39
2021/04/29 01:23:38;;;;;;;4.20;2.90;;;25.00;58.00;;;;;;5129509;27;20020;-39
2021/04/29 01:26:29;;;;;;;4.13;3.20;;;25.00;58.00;;;;;;5130987;27;20030;-38
2021/04/29 01:28:58;;;;;;;3.80;3.15;;;25.00;58.00;;;;;;5140580;27;20023;-39
2021/04/29 01:31:26;;;;;;;3.83;3.45;;;25.00;57.90;;;;;;5119252;27;20031;-39
2021/04/29 01:33:52;;;;;;;4.22;3.17;;;25.00;58.00;;;;;;5100098;27;20045;-40
2021/04/29 01:36:20;;;;;;;3.17;2.85;;;25.00;58.10;;;;;;5138516;27;20058;-39
2021/04/29 01:38:46;;;;;;;3.22;2.80;;;24.90;58.20;;;;;;5115604;28;20024;-39
2021/04/29 01:41:12;;;;;;;4.30;2.65;;;24.90;58.30;;;;;;5120110;27;20095;-39
2021/04/29 01:43:38;;;;;;;3.88;2.90;;;24.90;58.30;;;;;;5134374;27;20027;-39
2021/04/29 01:46:05;;;;;;;3.13;2.80;;;24.90;58.30;;;;;;5137895;27;20119;-39
2021/04/29 01:48:31;;;;;;;4.88;2.90;;;24.90;58.30;;;;;;5111657;27;20726;-38
2021/04/29 01:50:57;;;;;;;4.45;3.10;;;24.90;58.40;;;;;;5122036;27;20102;-39
2021/04/29 01:53:26;;;;;;;3.22;2.88;;;24.80;58.30;;;;;;5131232;27;20028;-39
2021/04/29 01:55:52;;;;;;;5.25;3.28;;;24.80;58.30;;;;;;5116599;27;20043;-39
2021/04/29 01:58:18;;;;;;;4.93;3.63;;;24.80;58.30;;;;;;5114150;28;20079;-39
2021/04/29 02:00:45;;;;;;;4.53;2.97;;;24.80;58.30;;;;;;5123741;27;20031;-39
2021/04/29 02:03:12;;;;;;;3.83;2.97;;;24.80;58.20;;;;;;5133391;27;20038;-39
2021/04/29 02:05:38;;;;;;;4.20;3.15;;;24.80;58.20;;;;;;5113317;27;20027;-43
2021/04/29 02:08:05;;;;;;;4.93;3.55;;;24.80;58.20;;;;;;5140428;27;20031;-41
2021/04/29 02:10:31;;;;;;;4.43;3.65;;;24.70;58.10;;;;;;5097536;27;20056;-40
2021/04/29 02:12:58;;;;;;;3.78;3.22;;;24.70;58.20;;;;;;5122973;27;20043;-39
2021/04/29 02:15:32;;;;;;;5.10;4.10;;;24.70;58.10;;;;;;5101117;27;20062;-39
2021/04/29 02:18:05;;;;;;;3.83;3.30;;;24.70;58.10;;;;;;5144469;27;20023;-39
2021/04/29 02:20:31;;;;;;;5.15;3.88;;;24.70;58.20;;;;;;5139218;27;20555;-39
2021/04/29 02:22:57;;;;;;;5.25;4.30;;;24.70;58.00;;;;;;5099565;27;20030;-40
2021/04/29 02:25:28;;;;;;;5.68;4.05;;;24.60;58.00;;;;;;5117928;28;20030;-39
2021/04/29 02:27:55;;;;;;;4.57;4.10;;;24.70;58.10;;;;;;5138058;27;20023;-39
2021/04/29 02:30:21;;;;;;;5.57;4.60;;;24.60;57.90;;;;;;5122147;27;20042;-38
2021/04/29 02:32:48;;;;;;;6.55;4.53;;;24.60;58.00;;;;;;5133223;27;20046;-39
2021/04/29 02:35:15;;;;;;;7.40;4.60;;;24.60;58.00;;;;;;5120367;27;20091;-40
2021/04/29 02:37:43;;;;;;;6.05;4.38;;;24.60;58.20;;;;;;5136523;27;20127;-38
2021/04/29 02:40:11;;;;;;;6.03;4.75;;;24.60;58.20;;;;;;5120559;27;20031;-38
2021/04/29 02:42:38;;;;;;;6.18;4.80;;;24.60;58.50;;;;;;5132388;27;20042;-39
2021/04/29 02:45:06;;;;;;;;;;;24.50;58.30;;;;;;5097199;28;20024;-38
2021/04/29 02:47:32;;;;;;;6.70;5.05;;;24.50;57.80;;;;;;5134033;27;20366;-39
2021/04/29 02:49:58;;;;;;;5.10;4.30;;;24.50;58.30;;;;;;5116945;28;20032;-38
2021/04/29 02:52:24;;;;;;;6.30;5.03;;;24.50;58.20;;;;;;5132027;27;20027;-44
2021/04/29 02:54:50;;;;;;;7.05;5.18;;;24.40;58.20;;;;;;5112915;28;20035;-38
2021/04/29 02:57:22;;;;;;;7.97;5.43;;;24.40;58.20;;;;;;5099308;27;20093;-40
2021/04/29 02:59:49;;;;;;;8.35;5.55;;;24.40;58.00;;;;;;5131627;27;20056;-39
2021/04/29 03:02:16;;;;;;;7.93;5.07;;;24.40;57.90;;;;;;5115506;27;20048;-39
2021/04/29 03:04:43;;;;;;;8.15;5.13;;;24.40;57.90;;;;;;5131629;27;20027;-38
2021/04/29 03:07:09;;;;;;;8.93;5.85;;;24.40;57.90;;;;;;5119751;27;20110;-39
2021/04/29 03:09:35;;;;;;;6.80;5.20;;;24.40;57.90;;;;;;5132847;27;20071;-38
2021/04/29 03:12:01;;;;;;;8.53;5.50;;;24.40;57.90;;;;;;5114219;27;20101;-39
2021/04/29 03:14:28;;;;;;;7.18;5.20;;;24.30;57.90;;;;;;5135665;27;20118;-38
2021/04/29 03:16:54;;;;;;;7.15;5.45;;;24.30;57.80;;;;;;5135486;27;20019;-39
2021/04/29 03:19:20;;;;;;;6.75;5.38;;;24.30;57.80;;;;;;5131550;27;20027;-38
2021/04/29 03:21:46;;;;;;;8.27;5.57;;;24.30;57.60;;;;;;5134233;27;20019;-39
2021/04/29 03:24:12;;;;;;;7.22;5.50;;;24.30;57.80;;;;;;5139121;27;20052;-39
2021/04/29 03:26:39;;;;;;;6.00;4.95;;;24.30;57.60;;;;;;5137572;27;20034;-39
2021/04/29 03:29:05;;;;;;;6.73;5.13;;;24.20;57.80;;;;;;5136431;27;20023;-38
2021/04/29 03:31:31;;;;;;;6.18;5.22;;;24.20;57.80;;;;;;5127366;27;20259;-39
2021/04/29 03:33:57;;;;;;;6.40;5.15;;;24.20;57.70;;;;;;5141204;27;20042;-38
2021/04/29 03:36:24;;;;;;;8.98;5.30;;;24.20;57.90;;;;;;5100023;27;20023;-38
2021/04/29 03:38:50;;;;;;;7.35;4.70;;;24.10;57.60;;;;;;5135753;27;20118;-38
2021/04/29 03:41:16;;;;;;;7.95;5.53;;;24.10;57.90;;;;;;5135484;27;20023;-38
2021/04/29 03:43:42;;;;;;;6.72;5.07;;;24.10;57.90;;;;;;5130570;27;20564;-39
2021/04/29 03:46:08;;;;;;;6.88;4.97;;;24.10;57.80;;;;;;5135621;27;20474;-41
2021/04/29 03:48:35;;;;;;;7.07;5.32;;;24.10;57.90;;;;;;5139273;27;20027;-40
2021/04/29 03:51:01;;;;;;;6.88;5.38;;;24.00;57.80;;;;;;5151010;27;20087;-39
2021/04/29 03:53:27;;;;;;;6.68;4.93;;;24.00;58.00;;;;;;5138671;27;20038;-39
2021/04/29 03:55:53;;;;;;;6.28;5.05;;;24.00;57.90;;;;;;5131204;27;20103;-38
2021/04/29 03:58:19;;;;;;;5.78;4.50;;;24.00;57.90;;;;;;5137034;27;20019;-38
2021/04/29 04:00:46;;;;;;;6.20;4.63;;;24.00;57.90;;;;;;5126032;27;20047;-38
2021/04/29 04:03:12;;;;;;;5.88;4.38;;;24.00;57.90;;;;;;5135582;27;20027;-38
2021/04/29 04:05:38;;;;;;;5.38;4.78;;;23.90;57.80;;;;;;5126560;27;20023;-38
2021/04/29 04:08:04;;;;;;;6.57;5.35;;;23.90;57.80;;;;;;5134159;27;20042;-39
2021/04/29 04:10:30;;;;;;;5.95;4.72;;;23.90;57.90;;;;;;5132285;27;20031;-38
2021/04/29 04:12:57;;;;;;;5.37;4.50;;;23.90;57.90;;;;;;5135526;27;20106;-38
2021/04/29 04:15:23;;;;;;;6.70;4.95;;;23.80;57.90;;;;;;5131505;27;20039;-38
2021/04/29 04:17:49;;;;;;;5.93;4.80;;;23.80;57.90;;;;;;5130207;27;20031;-38
2021/04/29 04:20:15;;;;;;;5.50;4.60;;;23.80;58.00;;;;;;5135323;27;20023;-38
2021/04/29 04:22:41;;;;;;;5.85;4.95;;;23.80;57.90;;;;;;5135117;27;20030;-38
2021/04/29 04:25:08;;;;;;;4.80;4.30;;;23.80;58.00;;;;;;5138939;27;20039;-38
2021/04/29 04:27:35;;;;;;;7.28;5.07;;;23.70;57.90;;;;;;5124621;28;20027;-38
2021/04/29 04:30:01;;;;;;;6.78;4.22;;;23.70;58.00;;;;;;5141292;27;20110;-39
2021/04/29 04:32:27;;;;;;;5.07;4.57;;;23.70;58.00;;;;;;5140333;27;20031;-38
2021/04/29 04:34:53;;;;;;;5.32;4.53;;;23.70;58.00;;;;;;5133406;27;20140;-39
2021/04/29 04:37:19;;;;;;;5.38;4.57;;;23.70;58.10;;;;;;5134325;27;20460;-39
2021/04/29 04:39:45;;;;;;;5.53;4.63;;;23.70;58.10;;;;;;5128696;27;20028;-39
2021/04/29 04:42:12;;;;;;;6.28;4.68;;;23.60;58.10;;;;;;5129193;28;20027;-38
2021/04/29 04:44:38;;;;;;;5.10;4.60;;;23.60;58.20;;;;;;5135085;28;20087;-38
2021/04/29 04:47:04;;;;;;;7.13;4.57;;;23.60;58.10;;;;;;5134337;28;20032;-39
2021/04/29 04:49:30;;;;;;;5.22;4.38;;;23.60;58.30;;;;;;5134521;28;20046;-38
2021/04/29 04:51:56;;;;;;;4.85;4.32;;;23.60;58.30;;;;;;5130098;28;20087;-39
2021/04/29 04:54:23;;;;;;;5.45;4.70;;;23.60;58.40;;;;;;5136191;28;20039;-40
2021/04/29 04:56:49;;;;;;;5.10;4.60;;;23.60;58.50;;;;;;5131178;28;20020;-38
2021/04/29 04:59:15;;;;;;;5.50;4.90;;;23.60;58.40;;;;;;5131153;28;20395;-38
2021/04/29 05:01:41;;;;;;;5.90;4.88;;;23.50;58.40;;;;;;5132735;28;20268;-38
2021/04/29 05:04:07;;;;;;;5.40;4.88;;;23.50;58.40;;;;;;5111568;28;20056;-39
2021/04/29 05:06:37;;;;;;;5.47;4.78;;;23.50;58.40;;;;;;5110673;28;20027;-38
2021/04/29 05:09:03;;;;;;;5.90;4.40;;;23.50;58.40;;;;;;5108516;28;20125;-39
2021/04/29 05:11:30;;;;;;;6.25;4.63;;;23.50;58.30;;;;;;5135774;28;20050;-38
2021/04/29 05:13:56;;;;;;;5.28;4.55;;;23.40;58.40;;;;;;5125326;28;20027;-38
2021/04/29 05:16:22;;;;;;;5.43;4.55;;;23.40;58.40;;;;;;5128472;28;20110;-38
2021/04/29 05:18:48;;;;;;;5.93;4.40;;;23.40;58.40;;;;;;5130587;28;20027;-39
2021/04/29 05:21:15;;;;;;;5.33;4.83;;;23.40;58.40;;;;;;5134745;28;20027;-38
2021/04/29 05:23:41;;;;;;;5.90;4.40;;;23.40;58.40;;;;;;5130558;28;20034;-38
2021/04/29 05:26:07;;;;;;;5.38;4.85;;;23.40;58.40;;;;;;5134354;28;20027;-38
2021/04/29 05:28:34;;;;;;;7.07;4.70;;;23.30;58.50;;;;;;5130554;28;20023;-38
2021/04/29 05:31:00;;;;;;;6.18;4.60;;;23.30;58.50;;;;;;5122144;28;20123;-37
2021/04/29 05:33:26;;;;;;;8.35;4.95;;;23.30;58.50;;;;;;5129193;28;20060;-38
2021/04/29 05:35:53;;;;;;;5.35;4.70;;;23.30;58.50;;;;;;5130342;28;20496;-38
2021/04/29 05:38:19;;;;;;;6.90;4.60;;;23.20;58.60;;;;;;5129789;28;20035;-38
2021/04/29 05:40:45;;;;;;;7.18;4.43;;;23.30;58.60;;;;;;5133911;28;20038;-38
2021/04/29 05:43:12;;;;;;;5.60;4.50;;;23.20;58.50;;;;;;5129083;28;20586;-38
2021/04/29 05:45:38;;;;;;;6.07;4.30;;;23.20;58.70;;;;;;5127108;28;20292;-38
2021/04/29 05:48:04;;;;;;;4.83;4.20;;;23.20;58.70;;;;;;5129746;28;20027;-38
2021/04/29 05:50:31;;;;;;;4.93;4.43;;;23.20;58.70;;;;;;5126671;28;20045;-38
2021/04/29 05:52:57;;;;;;;6.57;4.83;;;23.20;58.70;;;;;;5131649;27;20499;-39
2021/04/29 05:55:23;;;;;;;5.40;4.82;;;23.20;58.70;;;;;;5134826;27;20294;-38
2021/04/29 05:57:49;;;;;;;5.85;4.45;;;23.20;58.80;;;;;;5132069;27;20019;-38
2021/04/29 06:00:16;;;;;;;5.55;4.57;;;23.10;58.70;;;;;;5134567;27;20031;-38
2021/04/29 06:02:42;;;;;;;5.47;4.15;;;23.10;58.80;;;;;;5133094;27;20023;-38
2021/04/29 06:05:09;;;;;;;5.53;4.55;;;23.10;58.90;;;;;;5135725;27;20096;-38
2021/04/29 06:07:35;;;;;;;5.70;4.60;;;23.10;58.80;;;;;;5136872;27;20044;-39
2021/04/29 06:10:01;;;;;;;4.78;4.22;;;23.00;58.80;;;;;;5137646;27;20288;-44
2021/04/29 06:12:27;;;;;;;5.68;4.50;;;23.00;58.90;;;;;;5137242;27;20034;-38
2021/04/29 06:14:53;;;;;;;5.03;4.43;;;23.00;58.90;;;;;;5141787;27;20023;-38
2021/04/29 06:17:20;;;;;;;4.80;4.25;;;23.00;58.90;;;;;;5136726;27;20027;-38
2021/04/29 06:19:46;;;;;;;5.07;4.55;;;23.00;58.80;;;;;;5133136;27;20023;-38
2021/04/29 06:22:12;;;;;;;5.55;4.43;;;23.00;58.80;;;;;;5133643;27;20023;-40
2021/04/29 06:24:38;;;;;;;5.85;4.28;;;23.00;58.80;;;;;;5128927;27;20033;-38
2021/04/29 06:27:05;;;;;;;5.25;4.10;;;23.00;58.70;;;;;;5138510;27;20023;-38
2021/04/29 06:29:32;;;;;;;6.07;4.77;;;23.00;58.70;;;;;;5133184;27;20020;-38
2021/04/29 06:31:59;;;;;;;4.50;4.10;;;23.00;58.80;;;;;;5133076;27;20285;-38
2021/04/29 06:34:25;;;;;;;5.55;4.40;;;22.90;58.90;;;;;;5130877;27;20024;-38
2021/04/29 06:36:51;;;;;;;5.18;4.35;;;22.90;58.90;;;;;;5136140;27;20019;-38
2021/04/29 06:39:19;;;;;;;4.80;4.30;;;22.90;59.00;;;;;;5129053;27;20095;-38
2021/04/29 06:41:46;;;;;;;4.85;4.13;;;22.90;58.90;;;;;;5136346;27;20041;-39
2021/04/29 06:44:13;;;;;;;5.13;4.15;;;22.90;59.00;;;;;;5129463;27;20038;-38
2021/04/29 06:46:39;;;;;;;5.03;4.18;;;22.90;59.00;;;;;;5135350;27;20049;-40
2021/04/29 06:49:06;;;;;;;5.68;4.28;;;22.80;59.00;;;;;;5134963;27;20023;-41
2021/04/29 06:51:33;;;;;;;4.13;3.72;;;22.80;58.90;;;;;;5132787;27;20023;-38
2021/04/29 06:53:59;;;;;;;5.07;4.00;;;22.80;58.90;;;;;;5136742;27;20440;-38
2021/04/29 06:56:25;;;;;;;4.78;4.38;;;22.80;59.10;;;;;;5128217;27;20274;-38
2021/04/29 06:58:51;;;;;;;5.80;3.95;;;22.80;59.60;;;;;;5132815;27;20026;-39
2021/04/29 07:01:17;;;;;;;4.50;4.10;;;22.70;59.20;;;;;;5136944;27;20537;-38
2021/04/29 07:03:44;;;;;;;5.10;4.03;;;22.70;59.10;;;;;;5134628;27;20031;-38
2021/04/29 07:06:10;;;;;;;4.80;4.30;;;22.70;59.10;;;;;;5137722;27;20027;-38
2021/04/29 07:08:36;;;;;;;4.97;4.00;;;22.70;59.10;;;;;;5133592;27;20141;-39
2021/04/29 07:11:03;;;;;;;4.70;4.10;;;22.70;59.20;;;;;;5138223;27;20030;-39
2021/04/29 07:13:29;;;;;;;5.10;4.55;;;22.70;59.10;;;;;;5132519;27;20023;-38
2021/04/29 07:15:55;;;;;;;4.93;4.13;;;22.70;59.10;;;;;;5125630;27;20127;-38
2021/04/29 07:18:21;;;;;;;5.30;4.28;;;22.70;59.10;;;;;;5139074;27;20032;-38
2021/04/29 07:20:49;;;;;;;5.32;4.25;;;22.60;59.00;;;;;;5127990;27;20067;-38
2021/04/29 07:23:15;;;;;;;5.43;4.13;;;22.70;59.20;;;;;;5132794;27;20457;-39
2021/04/29 07:25:41;;;;;;;4.53;3.78;;;22.70;59.10;;;;;;5133230;27;20099;-38
2021/04/29 07:28:10;;;;;;;5.70;4.03;;;22.60;59.00;;;;;;5135540;27;20036;-38
2021/04/29 07:30:36;;;;;;;4.32;3.92;;;22.60;59.00;;;;;;5131197;27;20031;-38
2021/04/29 07:33:03;;;;;;;4.15;3.75;;;22.60;59.10;;;;;;5140023;27;20099;-38
2021/04/29 07:35:30;;;;;;;4.70;4.25;;;22.60;59.10;;;;;;5131636;27;20030;-38
2021/04/29 07:37:56;;;;;;;;;;;22.60;59.10;;;;;;5132056;27;20102;-38
2021/04/29 07:40:22;;;;;;;4.32;3.88;;;22.50;59.10;;;;;;5133986;27;20486;-38
2021/04/29 07:42:48;;;;;;;4.95;4.32;;;22.50;59.30;;;;;;5135757;27;20476;-38
2021/04/29 07:45:14;;;;;;;4.72;4.20;;;22.50;59.30;;;;;;5129693;27;20058;-38
2021/04/29 07:47:41;;;;;;;4.80;4.18;;;22.50;59.30;;;;;;5127550;27;20035;-38
2021/04/29 07:50:07;;;;;;;4.35;3.95;;;22.50;59.30;;;;;;5135252;27;20038;-38
2021/04/29 07:52:34;;;;;;;4.55;3.92;;;22.50;59.30;;;;;;5128869;27;20018;-38
2021/04/29 07:55:01;;;;;;;4.32;3.92;;;22.50;59.30;;;;;;5133409;27;20035;-38
2021/04/29 07:57:27;;;;;;;4.45;4.00;;;22.50;59.40;;;;;;5129919;27;20058;-38
2021/04/29 07:59:54;;;;;;;10.05;4.18;;;22.40;59.30;;;;;;5133160;27;20077;-38
2021/04/29 08:02:20;;;;;;;4.10;3.70;;;22.40;59.40;;;;;;5131304;27;20091;-38
2021/04/29 08:04:46;;;;;;;4.53;4.10;;;22.40;59.40;;;;;;5129651;27;20035;-38
2021/04/29 08:07:12;;;;;;;5.28;4.55;;;22.40;59.40;;;;;;5130372;27;20035;-38
2021/04/29 08:09:40;;;;;;;4.28;3.88;;;22.40;59.40;;;;;;5127288;27;20721;-38
2021/04/29 08:12:06;;;;;;;4.80;4.10;;;22.40;59.40;;;;;;5134466;27;20063;-38
2021/04/29 08:14:33;;;;;;;4.20;3.80;;;22.40;59.40;;;;;;5131351;27;20042;-38
2021/04/29 08:16:59;;;;;;;4.28;3.85;;;22.40;59.40;;;;;;5131612;27;20106;-38
2021/04/29 08:19:25;;;;;;;4.57;3.90;;;22.40;59.50;;;;;;5136881;27;20053;-38
2021/04/29 08:21:51;;;;;;;4.25;3.63;;;22.30;59.40;;;;;;5134484;27;20023;-38
2021/04/29 08:24:17;;;;;;;3.97;3.58;;;22.40;59.40;;;;;;5129652;27;20104;-38
2021/04/29 08:26:43;;;;;;;4.60;3.92;;;22.30;59.40;;;;;;5134558;27;20587;-39
2021/04/29 08:29:10;;;;;;;4.55;3.80;;;22.30;59.50;;;;;;5134613;27;20053;-38
2021/04/29 08:31:36;;;;;;;4.47;4.07;;;22.30;59.50;;;;;;5136192;27;20086;-38
2021/04/29 08:34:02;;;;;;;3.95;3.65;;;22.30;59.40;;;;;;5127084;27;20031;-38
2021/04/29 08:36:30;;;;;;;4.10;3.70;;;22.30;59.40;;;;;;5112897;27;20112;-39
2021/04/29 08:38:57;;;;;;;4.28;3.50;;;22.30;59.40;;;;;;5137513;28;20038;-41
2021/04/29 08:41:23;;;;;;;4.25;3.85;;;22.30;59.50;;;;;;5136737;27;20039;-38
2021/04/29 08:43:49;;;;;;;4.35;3.95;;;22.30;59.50;;;;;;5130865;28;20039;-38
2021/04/29 08:46:16;;;;;;;3.97;3.58;;;22.20;59.50;;;;;;5113807;28;20029;-38
2021/04/29 08:48:42;;;;;;;4.03;3.63;;;22.20;59.60;;;;;;5138244;28;20031;-40
2021/04/29 08:51:08;;;;;;;4.72;4.15;;;22.20;59.60;;;;;;5105514;28;20031;-38
2021/04/29 08:53:35;;;;;;;3.80;3.50;;;22.20;59.60;;;;;;5130697;28;20048;-38
2021/04/29 08:56:01;;;;;;;4.13;3.72;;;22.20;59.60;;;;;;5138027;28;20039;-41
2021/04/29 08:58:28;;;;;;;3.80;3.40;;;22.20;59.70;;;;;;5130743;28;20054;-38
2021/04/29 09:01:04;;;;;;;6.00;4.03;;;22.20;59.60;;;;;;5134900;28;20053;-37
2021/04/29 09:03:31;;;;;;;5.43;4.32;;;22.20;59.60;;;;;;5128531;28;20020;-40
2021/04/29 09:06:02;;;;;;;4.45;3.90;;;22.20;59.70;;;;;;5137717;28;20097;-38
2021/04/29 09:08:33;;;;;;;4.32;3.92;;;22.20;59.60;;;;;;5138900;28;20039;-38
2021/04/29 09:11:14;;;;;;;4.13;3.70;;;22.20;59.70;;;;;;5112239;28;20038;-40
2021/04/29 09:13:41;;;;;;;3.95;3.55;;;22.10;59.60;;;;;;5126577;28;20031;-41
2021/04/29 09:16:09;;;;;;;5.10;4.00;;;22.10;59.60;;;;;;5130688;28;20047;-38
2021/04/29 09:18:36;;;;;;;4.30;3.90;;;22.10;59.70;;;;;;5129376;28;20016;-38
2021/04/29 09:21:10;;;;;;;4.50;3.53;;;22.10;59.70;;;;;;5130736;28;20440;-38
2021/04/29 09:23:39;;;;;;;4.28;3.95;;;22.10;59.80;;;;;;5132578;28;20087;-38
2021/04/29 09:26:10;;;;;;;4.57;3.75;;;22.10;59.80;;;;;;5133028;27;20023;-38
2021/04/29 09:28:41;;;;;;;4.10;3.70;;;22.00;59.80;;;;;;5133460;27;20031;-38
2021/04/29 09:31:17;;;;;;;4.13;3.72;;;22.10;59.80;;;;;;5133409;27;20091;-38
2021/04/29 09:33:57;;;;;;;6.55;3.63;;;22.10;59.70;;;;;;5136312;27;20028;-40
2021/04/29 09:36:28;;;;;;;4.93;4.10;;;22.10;59.90;;;;;;5134326;27;20032;-45
2021/04/29 09:38:59;;;;;;;7.00;4.28;;;22.00;60.20;;;;;;5119756;27;20143;-58
2021/04/29 09:41:30;;;;;;;9.05;4.38;;;22.00;60.70;;;;;;5134657;27;20051;-58
2021/04/29 09:44:01;;;;;;;7.60;4.00;;;22.00;60.50;;;;;;5138275;27;20024;-58
2021/04/29 09:46:46;;;;;;;7.63;4.13;;;22.00;60.40;;;;;;5137921;27;20023;-58
2021/04/29 09:49:32;;;;;;;6.63;4.32;;;22.00;60.60;;;;;;5133684;27;20052;-58
2021/04/29 09:52:03;;;;;;;6.82;4.20;;;22.00;60.60;;;;;;5131517;27;20035;-59
2021/04/29 09:54:37;;;;;;;6.95;4.28;;;22.00;60.60;;;;;;5139757;27;20026;-58
2021/04/29 09:57:06;;;;;;;4.70;3.90;;;22.00;60.50;;;;;;5129029;27;20027;-58
2021/04/29 09:59:48;;;;;;;5.72;3.83;;;22.00;60.40;;;;;;5125786;28;20035;-58
2021/04/29 10:02:16;;;;;;;5.35;3.97;;;22.00;60.30;;;;;;5137556;27;20109;-58
2021/04/29 10:04:43;;;;;;;6.20;4.28;;;21.90;60.50;;;;;;5128428;27;20027;-58
2021/04/29 10:07:09;;;;;;;5.57;4.20;;;21.90;60.30;;;;;;5146357;27;20028;-58
2021/04/29 10:09:36;;;;;;;5.75;3.60;;;21.90;60.20;;;;;;5124015;28;20067;-58
2021/04/29 10:12:09;;;;;;;6.57;4.13;;;21.90;60.40;;;;;;5125833;28;20043;-58
2021/04/29 10:14:54;;;;;;;5.82;4.30;;;21.90;60.30;;;;;;5107481;28;20116;-58
2021/04/29 10:17:21;;;;;;;4.30;3.90;;;21.90;60.30;;;;;;5125763;28;20417;-59
2021/04/29 10:19:54;;;;;;;4.55;4.03;;;21.90;60.50;;;;;;5125422;28;20039;-58
2021/04/29 10:22:22;;;;;;;4.40;4.00;;;21.80;60.40;;;;;;5107223;28;20032;-58
2021/04/29 10:24:48;;;;;;;4.57;4.03;;;21.80;60.30;;;;;;5137712;27;20033;-58
2021/04/29 10:27:26;;;;;;;5.57;3.72;;;21.80;60.50;;;;;;5146196;27;20027;-58
2021/04/29 10:30:08;;;;;;;4.35;3.95;;;21.80;60.40;;;;;;5142863;27;20015;-58
2021/04/29 10:32:35;;;;;;;4.70;3.80;;;21.80;60.60;;;;;;5125492;28;20028;-58
2021/04/29 10:35:16;;;;;;;4.70;4.03;;;21.80;60.40;;;;;;5125346;28;20028;-58
2021/04/29 10:38:00;;;;;;;5.00;3.60;;;21.70;60.60;;;;;;5124590;28;20024;-59
2021/04/29 10:40:32;;;;;;;5.55;4.13;;;21.70;60.60;;;;;;5135840;27;20034;-58
2021/04/29 10:42:59;;;;;;;6.13;3.92;;;21.70;60.60;;;;;;5145849;27;20152;-58
2021/04/29 10:45:25;;;;;;;4.70;4.00;;;21.70;60.70;;;;;;5127350;27;20027;-58
2021/04/29 10:48:02;;;;;;;4.65;4.10;;;21.70;60.70;;;;;;5145736;27;20030;-58
2021/04/29 10:50:28;;;;;;;5.30;4.32;;;21.70;60.70;;;;;;5128660;27;20063;-58
2021/04/29 10:52:56;;;;;;;5.95;4.13;;;21.70;60.80;;;;;;5118046;28;20031;-58
2021/04/29 10:55:25;;;;;;;4.65;4.25;;;21.70;60.80;;;;;;5123439;27;20034;-58
2021/04/29 10:57:51;;;;;;;5.45;3.83;;;21.70;60.60;;;;;;5145546;27;20019;-58
2021/04/29 11:00:18;;;;;;;4.40;4.00;;;21.70;60.80;;;;;;5145274;27;20031;-59
2021/04/29 11:02:46;;;;;;;5.23;4.10;;;21.60;60.80;;;;;;5145460;27;20023;-58
2021/04/29 11:05:22;;;;;;;4.60;4.00;;;21.60;60.60;;;;;;5161164;27;20271;-59
2021/04/29 11:07:48;;;;;;;4.90;4.22;;;21.60;60.60;;;;;;5145219;27;20442;-59
2021/04/29 11:10:16;;;;;;;4.70;4.07;;;21.60;60.80;;;;;;5135517;27;20051;-59
2021/04/29 11:12:46;;;;;;;5.85;4.15;;;21.60;60.90;;;;;;5124815;28;20263;-58
2021/04/29 11:15:30;;;;;;;4.57;4.15;;;21.60;60.80;;;;;;5124615;28;20066;-57
2021/04/29 11:18:06;;;;;;;4.93;4.43;;;21.60;60.70;;;;;;5125355;28;20074;-59
2021/04/29 11:20:52;;;;;;;5.35;4.43;;;21.50;60.80;;;;;;5124649;28;20023;-59
2021/04/29 11:23:27;;;;;;;4.65;4.22;;;21.50;61.00;;;;;;5124431;28;20071;-58
2021/04/29 11:26:05;;;;;;;4.40;4.00;;;21.50;60.90;;;;;;5087866;28;20023;-58
2021/04/29 11:28:31;;;;;;;6.07;4.03;;;21.50;60.90;;;;;;5123644;28;20056;-58
2021/04/29 11:30:58;;;;;;;5.70;4.53;;;21.50;61.00;;;;;;5124094;28;20031;-58
2021/04/29 11:33:34;;;;;;;5.20;4.30;;;21.40;60.70;;;;;;5124172;28;20057;-58
2021/04/29 11:36:17;;;;;;;4.50;4.10;;;21.50;60.90;;;;;;5124102;28;20031;-58
2021/04/29 11:38:59;;;;;;;4.45;4.00;;;21.40;60.80;;;;;;5124087;28;20505;-59
2021/04/29 11:41:27;;;;;;;4.20;3.83;;;21.40;60.70;;;;;;5125336;27;20023;-58
2021/04/29 11:44:04;;;;;;;4.20;3.80;;;21.40;60.80;;;;;;5144655;27;20082;-58
2021/04/29 11:46:31;;;;;;;4.38;3.92;;;21.40;60.80;;;;;;5144222;27;20084;-59
2021/04/29 11:49:02;;;;;;;4.05;3.65;;;21.40;60.90;;;;;;5144296;27;20019;-58
2021/04/29 11:51:29;;;;;;;4.15;3.75;;;21.40;60.90;;;;;;5103538;28;20040;-58
2021/04/29 11:54:04;;;;;;;;;;;21.30;60.80;;;;;;5123865;27;20042;-58
2021/04/29 11:56:44;;;;;;;5.88;4.32;;;21.30;60.80;;;;;;5123678;28;19984;-58
2021/04/29 11:59:11;;;;;;;4.30;3.90;;;21.30;61.10;;;;;;5123866;28;20153;-58
2021/04/29 12:01:38;;;;;;;4.57;4.03;;;21.30;60.80;;;;;;5123907;28;20024;-58
2021/04/29 12:04:17;;;;;;;3.95;3.63;;;21.30;61.00;;;;;;5123678;28;20031;-58
2021/04/29 12:06:53;;;;;;;4.70;3.88;;;21.30;61.10;;;;;;5123290;28;20020;-58
2021/04/29 12:09:20;;;;;;;4.22;3.65;;;21.30;61.00;;;;;;5124952;27;20128;-58
2021/04/29 12:11:46;;;;;;;4.95;3.67;;;21.30;61.00;;;;;;5120522;28;20019;-58
2021/04/29 12:14:14;;;;;;;4.15;3.72;;;21.30;61.10;;;;;;5123347;28;20036;-59
2021/04/29 12:16:40;;;;;;;4.20;3.80;;;21.30;61.00;;;;;;5123191;28;20027;-57
2021/04/29 12:19:06;;;;;;;4.45;3.70;;;21.20;60.90;;;;;;5105579;28;20020;-58
2021/04/29 12:21:34;;;;;;;4.60;4.20;;;21.20;61.10;;;;;;5105287;28;20038;-58
2021/04/29 12:24:02;;;;;;;4.70;3.58;;;21.20;60.90;;;;;;5128655;27;20031;-58
2021/04/29 12:26:31;;;;;;;4.13;3.72;;;21.30;61.10;;;;;;5125325;27;20027;-57
2021/04/29 12:29:04;;;;;;;4.18;3.67;;;21.20;61.00;;;;;;5144120;27;20100;-58
2021/04/29 12:31:30;;;;;;;4.18;3.78;;;21.30;61.20;;;;;;5143846;27;20027;-59
2021/04/29 12:34:03;;;;;;;3.67;3.38;;;21.30;61.10;;;;;;5143972;27;20041;-58
2021/04/29 12:36:34;;;;;;;4.40;3.78;;;21.20;61.00;;;;;;5143400;27;20057;-58
2021/04/29 12:39:12;;;;;;;4.07;3.67;;;21.20;61.20;;;;;;5134069;27;20046;-58
2021/04/29 12:41:39;;;;;;;3.60;3.30;;;21.30;61.10;;;;;;5102902;28;20043;-58
2021/04/29 12:44:05;;;;;;;3.85;3.45;;;21.20;61.10;;;;;;5102801;28;20049;-58
2021/04/29 12:46:32;;;;;;;3.85;3.55;;;21.20;61.00;;;;;;5102659;28;20039;-57
2021/04/29 12:48:58;;;;;;;;;;;21.20;61.10;;;;;;5103572;28;20059;-59
2021/04/29 12:51:24;;;;;;;4.10;3.70;;;21.20;61.10;;;;;;5102648;28;19954;-58
2021/04/29 12:53:53;;;;;;;4.00;3.58;;;21.20;61.10;;;;;;5123633;28;20033;-58